UGTBUDYE

Guest
Details From UGTB - Tbilisi
To UDYE - Erebuni
Flight Number -
Tags Routegen Generated
Created
Modified
Stats Distance 98 nm / 181 km
Max Altitude 300 ft / 91 m
Waypoints 9
Social Downloads 1
Likes 0
Share

Download

Looking for another format? Having issues loading an existing format? Contact us
Advertisement - Login to hide

Notes

Departing runway 13 UGTB. Arriving runway 3 UDYE.

Route

UGTB +41.61_+045.03 +41.55_+045.06 +41.49_+045.07 +41.44_+045.04 +40.94_+044.83 +40.25_+044.54 +40.19_+044.52 UDYE

ID Type Via Altitude (ft/m) Position (lat/lon) Dist (leg/tot) Name
O UGTB APT - 0 / 0 41.65821 / 44.96489 - / 0 nm
+41.61_+045.03 LATLON - 300 / 91 41.60555 / 45.03130 4 / 4 nm
+41.55_+045.06 LATLON - 300 / 91 41.55238 / 45.06193 3 / 7 nm
+41.49_+045.07 LATLON - 300 / 91 41.49459 / 45.06642 3 / 11 nm
+41.44_+045.04 LATLON - 300 / 91 41.43913 / 45.04427 3 / 14 nm
+40.94_+044.83 LATLON - 300 / 91 40.93766 / 44.82830 31 / 46 nm
+40.25_+044.54 LATLON - 300 / 91 40.25065 / 44.53986 43 / 89 nm
+40.19_+044.52 LATLON - 300 / 91 40.19404 / 44.52399 3 / 93 nm
O UDYE APT - 0 / 0 40.13273 / 44.47369 4 / 97 nm

Altitude Profile

Advertisement - Login to hide

UGTB

Details ICAO UGTB (TBS)
Name Tbilisi International Airport
Region Georgia
Timezone Asia/Tbilisi (UTC+4.0)
Stats Elevation 1,624 ft / 495 m (AMSL)
Location 41.674000° 44.947200°
Runways 2
Magnetic Variation 6.868° E

METAR

UGTB 271400Z 15007KT CAVOK 26/13 Q1019 NOSIG

Decode

TAF

TAF UGTB 271100Z 2712/2812 18007KT CAVOK TX26/2712Z TN16/2802Z= TAF UGKO 271100Z 2712/2812 08012KT CAVOK TX34/2712Z TN19/2802Z TEMPO 2712/2718 VRB02KT

Decode

Departure Runways

ID Width Length Bearing (true/mag) Surface Threshold Overrun Markings Lighting
13L 66 ft / 20 m 657 ft / 200 m 133.77° / 126.91° CONCRETE 0 ft / 0 m 26 ft / 8 m APP CENTERLINE
13R 148 ft / 45 m 9,852 ft / 3,003 m 136.65° / 129.79° CONCRETE 0 ft / 0 m 0 ft / 0 m PREC-APP CENTERLINE EDGE THRESHOLD ALSF-II TDZ REIL-OMNI
31L 148 ft / 45 m 9,852 ft / 3,003 m 316.67° / 309.80° CONCRETE 0 ft / 0 m 0 ft / 0 m PREC-APP CENTERLINE EDGE THRESHOLD ALSF-II TDZ REIL-OMNI
31R 66 ft / 20 m 657 ft / 200 m 313.77° / 306.91° CONCRETE 0 ft / 0 m 26 ft / 8 m APP CENTERLINE

UDYE

Details ICAO UDYE
Name EREBUNI
Region Armenia
Timezone Asia/Yerevan (UTC+4.0)
Stats Elevation 2,948 ft / 899 m (AMSL)
Location 40.122100° 44.465000°
Runways 1
Magnetic Variation 6.407° E

METAR

Not found

TAF

Not found

Destination Runways

ID Width Length Bearing (true/mag) Surface Threshold Overrun Markings Lighting
03 132 ft / 40 m 9,140 ft / 2,786 m 32.06° / 25.65° ASPHALT 0 ft / 0 m 0 ft / 0 m APP
21 132 ft / 40 m 9,140 ft / 2,786 m 212.07° / 205.66° ASPHALT 1,650 ft / 503 m 100 ft / 30 m APP

Popular Alternatives